sensor_id;sensor_type;location;lat;lon;timestamp;P1;durP1;ratioP1;P2;durP2;ratioP2
25917;SDS011;13899;51.174;4.456;2023-07-08T00:00:52;4.70;;;4.30;;
25917;SDS011;13899;51.174;4.456;2023-07-08T00:03:19;4.82;;;3.90;;
25917;SDS011;13899;51.174;4.456;2023-07-08T00:08:15;4.55;;;3.60;;
25917;SDS011;13899;51.174;4.456;2023-07-08T00:10:42;4.82;;;3.88;;
25917;SDS011;13899;51.174;4.456;2023-07-08T00:13:07;5.03;;;3.80;;
25917;SDS011;13899;51.174;4.456;2023-07-08T00:15:34;4.95;;;4.05;;
25917;SDS011;13899;51.174;4.456;2023-07-08T00:18:01;6.78;;;4.30;;
25917;SDS011;13899;51.174;4.456;2023-07-08T00:23:04;4.78;;;4.25;;
25917;SDS011;13899;51.174;4.456;2023-07-08T00:25:30;4.53;;;4.13;;
25917;SDS011;13899;51.174;4.456;2023-07-08T00:37:58;6.03;;;4.63;;
25917;SDS011;13899;51.174;4.456;2023-07-08T00:40:31;5.38;;;3.85;;
25917;SDS011;13899;51.174;4.456;2023-07-08T00:42:58;4.80;;;4.15;;
25917;SDS011;13899;51.174;4.456;2023-07-08T00:45:30;4.40;;;4.00;;
25917;SDS011;13899;51.174;4.456;2023-07-08T00:48:22;9.80;;;4.23;;
25917;SDS011;13899;51.174;4.456;2023-07-08T00:50:53;4.45;;;4.05;;
25917;SDS011;13899;51.174;4.456;2023-07-08T00:53:23;6.17;;;3.77;;
25917;SDS011;13899;51.174;4.456;2023-07-08T00:55:54;6.25;;;4.40;;
25917;SDS011;13899;51.174;4.456;2023-07-08T00:58:44;4.22;;;3.75;;
25917;SDS011;13899;51.174;4.456;2023-07-08T01:01:17;4.60;;;4.18;;
25917;SDS011;13899;51.174;4.456;2023-07-08T01:03:45;6.32;;;4.80;;
25917;SDS011;13899;51.174;4.456;2023-07-08T01:06:18;4.63;;;4.22;;
25917;SDS011;13899;51.174;4.456;2023-07-08T01:08:46;4.57;;;4.18;;
25917;SDS011;13899;51.174;4.456;2023-07-08T01:11:17;6.28;;;4.20;;
25917;SDS011;13899;51.174;4.456;2023-07-08T01:13:46;5.95;;;4.10;;
25917;SDS011;13899;51.174;4.456;2023-07-08T01:16:13;4.75;;;4.28;;
25917;SDS011;13899;51.174;4.456;2023-07-08T01:21:25;5.65;;;4.20;;
25917;SDS011;13899;51.174;4.456;2023-07-08T01:23:56;5.10;;;4.20;;
25917;SDS011;13899;51.174;4.456;2023-07-08T01:26:23;6.63;;;4.45;;
25917;SDS011;13899;51.174;4.456;2023-07-08T01:28:50;6.82;;;4.60;;
25917;SDS011;13899;51.174;4.456;2023-07-08T01:31:18;4.40;;;4.00;;
25917;SDS011;13899;51.174;4.456;2023-07-08T01:33:44;4.35;;;3.95;;
25917;SDS011;13899;51.174;4.456;2023-07-08T01:36:11;5.60;;;5.00;;
25917;SDS011;13899;51.174;4.456;2023-07-08T01:38:36;5.25;;;4.50;;
25917;SDS011;13899;51.174;4.456;2023-07-08T01:41:04;4.78;;;4.38;;
25917;SDS011;13899;51.174;4.456;2023-07-08T01:43:30;8.07;;;4.87;;
25917;SDS011;13899;51.174;4.456;2023-07-08T01:45:57;5.80;;;4.80;;
25917;SDS011;13899;51.174;4.456;2023-07-08T01:48:25;5.57;;;4.50;;
25917;SDS011;13899;51.174;4.456;2023-07-08T01:50:59;5.15;;;4.65;;
25917;SDS011;13899;51.174;4.456;2023-07-08T01:53:30;5.65;;;4.93;;
25917;SDS011;13899;51.174;4.456;2023-07-08T01:55:58;4.95;;;4.45;;
25917;SDS011;13899;51.174;4.456;2023-07-08T01:58:24;5.37;;;4.83;;
25917;SDS011;13899;51.174;4.456;2023-07-08T02:00:50;6.20;;;4.55;;
25917;SDS011;13899;51.174;4.456;2023-07-08T02:03:17;5.25;;;4.75;;
25917;SDS011;13899;51.174;4.456;2023-07-08T02:05:43;5.43;;;4.67;;
25917;SDS011;13899;51.174;4.456;2023-07-08T02:08:09;5.73;;;5.23;;
25917;SDS011;13899;51.174;4.456;2023-07-08T02:10:34;6.43;;;4.13;;
25917;SDS011;13899;51.174;4.456;2023-07-08T02:13:01;5.03;;;4.35;;
25917;SDS011;13899;51.174;4.456;2023-07-08T02:15:27;4.90;;;4.37;;
25917;SDS011;13899;51.174;4.456;2023-07-08T02:17:53;4.97;;;4.50;;
25917;SDS011;13899;51.174;4.456;2023-07-08T02:20:18;6.28;;;4.82;;
25917;SDS011;13899;51.174;4.456;2023-07-08T02:22:44;7.40;;;5.17;;
25917;SDS011;13899;51.174;4.456;2023-07-08T02:25:09;6.53;;;5.17;;
25917;SDS011;13899;51.174;4.456;2023-07-08T02:27:36;5.57;;;4.88;;
25917;SDS011;13899;51.174;4.456;2023-07-08T02:30:02;9.32;;;5.40;;
25917;SDS011;13899;51.174;4.456;2023-07-08T02:32:28;7.20;;;5.33;;
25917;SDS011;13899;51.174;4.456;2023-07-08T02:34:53;5.40;;;4.50;;
25917;SDS011;13899;51.174;4.456;2023-07-08T02:37:19;5.17;;;4.67;;
25917;SDS011;13899;51.174;4.456;2023-07-08T02:39:44;4.67;;;4.23;;
25917;SDS011;13899;51.174;4.456;2023-07-08T02:42:10;5.63;;;5.00;;
25917;SDS011;13899;51.174;4.456;2023-07-08T02:44:35;5.50;;;4.47;;
25917;SDS011;13899;51.174;4.456;2023-07-08T02:47:01;6.00;;;5.37;;
25917;SDS011;13899;51.174;4.456;2023-07-08T02:49:27;7.20;;;5.13;;
25917;SDS011;13899;51.174;4.456;2023-07-08T02:51:52;6.10;;;4.83;;
25917;SDS011;13899;51.174;4.456;2023-07-08T02:54:18;5.47;;;4.97;;
25917;SDS011;13899;51.174;4.456;2023-07-08T02:56:44;5.28;;;4.65;;
25917;SDS011;13899;51.174;4.456;2023-07-08T02:59:09;5.63;;;5.13;;
25917;SDS011;13899;51.174;4.456;2023-07-08T03:01:35;5.93;;;5.00;;
25917;SDS011;13899;51.174;4.456;2023-07-08T03:04:06;5.93;;;5.32;;
25917;SDS011;13899;51.174;4.456;2023-07-08T03:06:41;6.63;;;4.85;;
25917;SDS011;13899;51.174;4.456;2023-07-08T03:09:08;5.88;;;5.28;;
25917;SDS011;13899;51.174;4.456;2023-07-08T03:11:35;6.20;;;5.18;;
25917;SDS011;13899;51.174;4.456;2023-07-08T03:14:00;6.28;;;5.18;;
25917;SDS011;13899;51.174;4.456;2023-07-08T03:16:26;11.20;;;6.05;;
25917;SDS011;13899;51.174;4.456;2023-07-08T03:18:52;5.47;;;5.03;;
25917;SDS011;13899;51.174;4.456;2023-07-08T03:21:18;6.28;;;5.05;;
25917;SDS011;13899;51.174;4.456;2023-07-08T03:23:44;6.57;;;4.78;;
25917;SDS011;13899;51.174;4.456;2023-07-08T03:26:14;5.70;;;5.20;;
25917;SDS011;13899;51.174;4.456;2023-07-08T03:28:42;5.50;;;5.07;;
25917;SDS011;13899;51.174;4.456;2023-07-08T03:31:09;5.95;;;5.38;;
25917;SDS011;13899;51.174;4.456;2023-07-08T03:33:35;7.60;;;5.20;;
25917;SDS011;13899;51.174;4.456;2023-07-08T03:36:02;7.05;;;6.30;;
25917;SDS011;13899;51.174;4.456;2023-07-08T03:38:28;5.85;;;5.35;;
25917;SDS011;13899;51.174;4.456;2023-07-08T03:40:54;6.72;;;6.13;;
25917;SDS011;13899;51.174;4.456;2023-07-08T03:43:19;9.17;;;5.20;;
25917;SDS011;13899;51.174;4.456;2023-07-08T03:45:45;6.97;;;5.60;;
25917;SDS011;13899;51.174;4.456;2023-07-08T03:48:11;8.98;;;6.15;;
25917;SDS011;13899;51.174;4.456;2023-07-08T03:50:37;6.30;;;5.70;;
25917;SDS011;13899;51.174;4.456;2023-07-08T03:53:04;6.13;;;5.50;;
25917;SDS011;13899;51.174;4.456;2023-07-08T03:55:29;7.50;;;5.93;;
25917;SDS011;13899;51.174;4.456;2023-07-08T04:00:25;6.05;;;5.55;;
25917;SDS011;13899;51.174;4.456;2023-07-08T04:02:51;6.57;;;5.60;;
25917;SDS011;13899;51.174;4.456;2023-07-08T04:05:17;5.77;;;5.27;;
25917;SDS011;13899;51.174;4.456;2023-07-08T04:07:45;6.40;;;5.65;;
25917;SDS011;13899;51.174;4.456;2023-07-08T04:10:11;5.95;;;5.45;;
25917;SDS011;13899;51.174;4.456;2023-07-08T04:12:37;6.00;;;5.50;;
25917;SDS011;13899;51.174;4.456;2023-07-08T04:15:03;5.73;;;5.17;;
25917;SDS011;13899;51.174;4.456;2023-07-08T04:17:29;7.18;;;5.00;;
25917;SDS011;13899;51.174;4.456;2023-07-08T04:19:55;6.37;;;5.73;;
25917;SDS011;13899;51.174;4.456;2023-07-08T04:22:21;5.55;;;5.05;;
25917;SDS011;13899;51.174;4.456;2023-07-08T04:24:47;5.57;;;5.07;;
25917;SDS011;13899;51.174;4.456;2023-07-08T04:27:14;6.63;;;5.13;;
25917;SDS011;13899;51.174;4.456;2023-07-08T04:29:41;5.60;;;4.88;;
25917;SDS011;13899;51.174;4.456;2023-07-08T04:32:08;5.63;;;5.05;;
25917;SDS011;13899;51.174;4.456;2023-07-08T04:34:33;5.77;;;5.27;;
25917;SDS011;13899;51.174;4.456;2023-07-08T04:36:59;5.85;;;5.40;;
25917;SDS011;13899;51.174;4.456;2023-07-08T04:39:24;8.30;;;5.57;;
25917;SDS011;13899;51.174;4.456;2023-07-08T04:41:50;6.85;;;5.25;;
25917;SDS011;13899;51.174;4.456;2023-07-08T04:44:16;6.17;;;5.57;;
25917;SDS011;13899;51.174;4.456;2023-07-08T04:46:49;6.00;;;5.40;;
25917;SDS011;13899;51.174;4.456;2023-07-08T04:49:21;5.90;;;5.38;;
25917;SDS011;13899;51.174;4.456;2023-07-08T04:51:47;5.75;;;5.30;;
25917;SDS011;13899;51.174;4.456;2023-07-08T04:54:13;9.67;;;5.77;;
25917;SDS011;13899;51.174;4.456;2023-07-08T04:56:44;8.70;;;6.37;;
25917;SDS011;13899;51.174;4.456;2023-07-08T04:59:12;7.38;;;5.88;;
25917;SDS011;13899;51.174;4.456;2023-07-08T05:01:41;6.10;;;5.50;;
25917;SDS011;13899;51.174;4.456;2023-07-08T05:04:09;5.63;;;5.13;;
25917;SDS011;13899;51.174;4.456;2023-07-08T05:06:37;6.75;;;4.70;;
25917;SDS011;13899;51.174;4.456;2023-07-08T05:09:02;7.73;;;6.10;;
25917;SDS011;13899;51.174;4.456;2023-07-08T05:11:29;6.73;;;5.90;;
25917;SDS011;13899;51.174;4.456;2023-07-08T05:13:55;5.53;;;5.03;;
25917;SDS011;13899;51.174;4.456;2023-07-08T05:16:20;5.77;;;5.17;;
25917;SDS011;13899;51.174;4.456;2023-07-08T05:18:46;5.77;;;5.17;;
25917;SDS011;13899;51.174;4.456;2023-07-08T05:21:12;6.77;;;5.80;;
25917;SDS011;13899;51.174;4.456;2023-07-08T05:23:38;7.07;;;6.47;;
25917;SDS011;13899;51.174;4.456;2023-07-08T05:26:04;6.17;;;5.67;;
25917;SDS011;13899;51.174;4.456;2023-07-08T05:28:32;6.60;;;5.35;;
25917;SDS011;13899;51.174;4.456;2023-07-08T05:30:57;5.77;;;5.10;;
25917;SDS011;13899;51.174;4.456;2023-07-08T05:33:23;5.83;;;5.23;;
25917;SDS011;13899;51.174;4.456;2023-07-08T05:35:50;7.53;;;6.07;;
25917;SDS011;13899;51.174;4.456;2023-07-08T05:38:16;8.87;;;6.50;;
25917;SDS011;13899;51.174;4.456;2023-07-08T05:40:42;7.07;;;6.40;;
25917;SDS011;13899;51.174;4.456;2023-07-08T05:43:07;7.07;;;5.87;;
25917;SDS011;13899;51.174;4.456;2023-07-08T05:45:33;7.10;;;6.43;;
25917;SDS011;13899;51.174;4.456;2023-07-08T05:48:01;6.15;;;5.55;;
25917;SDS011;13899;51.174;4.456;2023-07-08T05:50:27;6.95;;;5.72;;
25917;SDS011;13899;51.174;4.456;2023-07-08T05:52:53;9.03;;;6.13;;
25917;SDS011;13899;51.174;4.456;2023-07-08T05:55:18;6.10;;;5.50;;
25917;SDS011;13899;51.174;4.456;2023-07-08T05:57:44;6.90;;;6.30;;
25917;SDS011;13899;51.174;4.456;2023-07-08T06:00:10;10.87;;;6.60;;
25917;SDS011;13899;51.174;4.456;2023-07-08T06:02:36;7.20;;;6.57;;
25917;SDS011;13899;51.174;4.456;2023-07-08T06:05:02;6.10;;;5.57;;
25917;SDS011;13899;51.174;4.456;2023-07-08T06:07:27;6.83;;;6.17;;
25917;SDS011;13899;51.174;4.456;2023-07-08T06:09:53;7.13;;;6.53;;
25917;SDS011;13899;51.174;4.456;2023-07-08T06:12:21;7.38;;;6.30;;
25917;SDS011;13899;51.174;4.456;2023-07-08T06:14:47;6.35;;;4.35;;
25917;SDS011;13899;51.174;4.456;2023-07-08T06:17:12;9.37;;;6.87;;
25917;SDS011;13899;51.174;4.456;2023-07-08T06:19:38;6.50;;;5.50;;
25917;SDS011;13899;51.174;4.456;2023-07-08T06:22:03;7.67;;;6.60;;
25917;SDS011;13899;51.174;4.456;2023-07-08T06:24:29;6.60;;;5.87;;
25917;SDS011;13899;51.174;4.456;2023-07-08T06:26:55;7.83;;;6.80;;
25917;SDS011;13899;51.174;4.456;2023-07-08T06:29:20;6.43;;;5.93;;
25917;SDS011;13899;51.174;4.456;2023-07-08T06:31:46;6.03;;;5.53;;
25917;SDS011;13899;51.174;4.456;2023-07-08T06:34:12;6.67;;;5.43;;
25917;SDS011;13899;51.174;4.456;2023-07-08T06:36:37;7.30;;;6.07;;
25917;SDS011;13899;51.174;4.456;2023-07-08T06:39:03;7.37;;;6.00;;
25917;SDS011;13899;51.174;4.456;2023-07-08T06:41:32;9.43;;;6.05;;
25917;SDS011;13899;51.174;4.456;2023-07-08T06:43:57;6.27;;;5.67;;
25917;SDS011;13899;51.174;4.456;2023-07-08T06:46:23;7.43;;;6.73;;
25917;SDS011;13899;51.174;4.456;2023-07-08T06:48:49;6.20;;;5.60;;
25917;SDS011;13899;51.174;4.456;2023-07-08T06:51:15;7.10;;;6.40;;
25917;SDS011;13899;51.174;4.456;2023-07-08T06:53:40;7.27;;;6.57;;
25917;SDS011;13899;51.174;4.456;2023-07-08T06:56:06;6.47;;;5.83;;
25917;SDS011;13899;51.174;4.456;2023-07-08T06:58:33;12.18;;;6.22;;
25917;SDS011;13899;51.174;4.456;2023-07-08T07:00:59;10.57;;;6.57;;
25917;SDS011;13899;51.174;4.456;2023-07-08T07:03:24;8.07;;;6.40;;
25917;SDS011;13899;51.174;4.456;2023-07-08T07:05:50;5.93;;;5.33;;
25917;SDS011;13899;51.174;4.456;2023-07-08T07:08:16;7.80;;;5.80;;
25917;SDS011;13899;51.174;4.456;2023-07-08T07:10:41;5.80;;;5.30;;
25917;SDS011;13899;51.174;4.456;2023-07-08T07:13:07;8.13;;;5.10;;
25917;SDS011;13899;51.174;4.456;2023-07-08T07:15:33;6.03;;;5.43;;
25917;SDS011;13899;51.174;4.456;2023-07-08T07:17:58;6.03;;;5.37;;
25917;SDS011;13899;51.174;4.456;2023-07-08T07:20:25;7.57;;;5.38;;
25917;SDS011;13899;51.174;4.456;2023-07-08T07:22:51;20.73;;;6.35;;
25917;SDS011;13899;51.174;4.456;2023-07-08T07:25:17;6.18;;;5.65;;
25917;SDS011;13899;51.174;4.456;2023-07-08T07:27:43;11.03;;;5.73;;
25917;SDS011;13899;51.174;4.456;2023-07-08T07:30:08;7.77;;;6.30;;
25917;SDS011;13899;51.174;4.456;2023-07-08T07:32:37;7.95;;;6.47;;
25917;SDS011;13899;51.174;4.456;2023-07-08T07:35:04;7.73;;;5.97;;
25917;SDS011;13899;51.174;4.456;2023-07-08T07:37:30;6.97;;;5.97;;
25917;SDS011;13899;51.174;4.456;2023-07-08T07:39:56;6.10;;;5.10;;
25917;SDS011;13899;51.174;4.456;2023-07-08T07:42:21;7.73;;;4.87;;
25917;SDS011;13899;51.174;4.456;2023-07-08T07:44:47;6.53;;;5.50;;
25917;SDS011;13899;51.174;4.456;2023-07-08T07:47:13;6.53;;;5.10;;
25917;SDS011;13899;51.174;4.456;2023-07-08T07:49:39;7.03;;;5.35;;
25917;SDS011;13899;51.174;4.456;2023-07-08T07:52:05;6.35;;;5.65;;
25917;SDS011;13899;51.174;4.456;2023-07-08T07:54:31;6.55;;;5.57;;
25917;SDS011;13899;51.174;4.456;2023-07-08T07:56:57;5.80;;;5.20;;
25917;SDS011;13899;51.174;4.456;2023-07-08T07:59:23;6.37;;;4.83;;
25917;SDS011;13899;51.174;4.456;2023-07-08T08:01:48;7.90;;;5.20;;
25917;SDS011;13899;51.174;4.456;2023-07-08T08:04:14;6.03;;;5.30;;
25917;SDS011;13899;51.174;4.456;2023-07-08T08:06:39;7.40;;;5.50;;
25917;SDS011;13899;51.174;4.456;2023-07-08T08:09:06;7.57;;;5.90;;
25917;SDS011;13899;51.174;4.456;2023-07-08T08:11:31;6.35;;;5.40;;
25917;SDS011;13899;51.174;4.456;2023-07-08T08:13:57;7.27;;;5.40;;
25917;SDS011;13899;51.174;4.456;2023-07-08T08:16:23;6.30;;;5.70;;
25917;SDS011;13899;51.174;4.456;2023-07-08T08:18:48;5.70;;;5.20;;
25917;SDS011;13899;51.174;4.456;2023-07-08T08:21:14;10.00;;;6.73;;
25917;SDS011;13899;51.174;4.456;2023-07-08T08:23:40;7.18;;;6.38;;
25917;SDS011;13899;51.174;4.456;2023-07-08T08:26:06;5.75;;;4.85;;
25917;SDS011;13899;51.174;4.456;2023-07-08T08:28:32;8.43;;;5.67;;
25917;SDS011;13899;51.174;4.456;2023-07-08T08:30:58;8.00;;;7.40;;
25917;SDS011;13899;51.174;4.456;2023-07-08T08:33:23;6.13;;;5.00;;
25917;SDS011;13899;51.174;4.456;2023-07-08T08:35:49;5.60;;;5.03;;
25917;SDS011;13899;51.174;4.456;2023-07-08T08:38:14;6.07;;;5.47;;
25917;SDS011;13899;51.174;4.456;2023-07-08T08:40:41;8.40;;;5.87;;
25917;SDS011;13899;51.174;4.456;2023-07-08T08:43:12;6.72;;;5.07;;
25917;SDS011;13899;51.174;4.456;2023-07-08T08:45:46;8.82;;;5.63;;
25917;SDS011;13899;51.174;4.456;2023-07-08T08:48:15;5.70;;;5.05;;
25917;SDS011;13899;51.174;4.456;2023-07-08T08:53:18;7.85;;;7.15;;
25917;SDS011;13899;51.174;4.456;2023-07-08T08:55:46;6.68;;;5.90;;
25917;SDS011;13899;51.174;4.456;2023-07-08T08:58:24;8.75;;;5.80;;
25917;SDS011;13899;51.174;4.456;2023-07-08T09:01:04;7.35;;;5.82;;
25917;SDS011;13899;51.174;4.456;2023-07-08T09:03:35;6.80;;;6.05;;
25917;SDS011;13899;51.174;4.456;2023-07-08T09:06:27;6.32;;;5.63;;
25917;SDS011;13899;51.174;4.456;2023-07-08T09:09:03;5.95;;;5.35;;
25917;SDS011;13899;51.174;4.456;2023-07-08T09:14:40;8.75;;;7.85;;
25917;SDS011;13899;51.174;4.456;2023-07-08T09:19:33;7.95;;;7.22;;
25917;SDS011;13899;51.174;4.456;2023-07-08T09:22:26;8.35;;;7.20;;
25917;SDS011;13899;51.174;4.456;2023-07-08T09:25:03;7.93;;;7.13;;
25917;SDS011;13899;51.174;4.456;2023-07-08T09:27:50;7.57;;;6.95;;
25917;SDS011;13899;51.174;4.456;2023-07-08T09:30:17;7.17;;;6.47;;
25917;SDS011;13899;51.174;4.456;2023-07-08T09:32:48;5.53;;;5.03;;
25917;SDS011;13899;51.174;4.456;2023-07-08T09:35:56;6.00;;;5.40;;
25917;SDS011;13899;51.174;4.456;2023-07-08T09:38:08;6.50;;;5.65;;
25917;SDS011;13899;51.174;4.456;2023-07-08T09:40:39;7.70;;;7.00;;
25917;SDS011;13899;51.174;4.456;2023-07-08T09:45:49;9.30;;;7.93;;
25917;SDS011;13899;51.174;4.456;2023-07-08T09:48:16;9.40;;;8.70;;
25917;SDS011;13899;51.174;4.456;2023-07-08T09:50:53;8.23;;;7.53;;
25917;SDS011;13899;51.174;4.456;2023-07-08T09:53:21;6.80;;;5.38;;
25917;SDS011;13899;51.174;4.456;2023-07-08T09:55:46;8.50;;;5.43;;
25917;SDS011;13899;51.174;4.456;2023-07-08T10:00:58;9.07;;;8.30;;
25917;SDS011;13899;51.174;4.456;2023-07-08T10:03:27;8.85;;;8.10;;
25917;SDS011;13899;51.174;4.456;2023-07-08T10:05:56;9.07;;;7.82;;
25917;SDS011;13899;51.174;4.456;2023-07-08T10:08:28;5.45;;;4.97;;
25917;SDS011;13899;51.174;4.456;2023-07-08T10:11:42;5.40;;;4.90;;
25917;SDS011;13899;51.174;4.456;2023-07-08T10:14:05;4.85;;;4.45;;
25917;SDS011;13899;51.174;4.456;2023-07-08T10:16:36;9.30;;;8.70;;
25917;SDS011;13899;51.174;4.456;2023-07-08T10:19:04;9.38;;;8.70;;
25917;SDS011;13899;51.174;4.456;2023-07-08T10:26:44;5.28;;;4.03;;
25917;SDS011;13899;51.174;4.456;2023-07-08T10:31:48;7.97;;;4.60;;
25917;SDS011;13899;51.174;4.456;2023-07-08T10:34:46;5.53;;;4.95;;
25917;SDS011;13899;51.174;4.456;2023-07-08T10:37:22;5.18;;;4.57;;
25917;SDS011;13899;51.174;4.456;2023-07-08T10:43:30;5.20;;;4.45;;
25917;SDS011;13899;51.174;4.456;2023-07-08T10:45:55;5.75;;;5.10;;
25917;SDS011;13899;51.174;4.456;2023-07-08T10:48:35;5.80;;;4.68;;
25917;SDS011;13899;51.174;4.456;2023-07-08T10:56:45;6.72;;;4.28;;
25917;SDS011;13899;51.174;4.456;2023-07-08T11:10:01;9.90;;;5.00;;
25917;SDS011;13899;51.174;4.456;2023-07-08T11:18:00;6.07;;;5.05;;
25917;SDS011;13899;51.174;4.456;2023-07-08T11:23:17;6.15;;;5.55;;
25917;SDS011;13899;51.174;4.456;2023-07-08T11:25:44;5.40;;;4.87;;
25917;SDS011;13899;51.174;4.456;2023-07-08T11:28:15;5.18;;;4.30;;
25917;SDS011;13899;51.174;4.456;2023-07-08T11:30:44;10.05;;;9.18;;
25917;SDS011;13899;51.174;4.456;2023-07-08T11:33:11;6.07;;;5.45;;
25917;SDS011;13899;51.174;4.456;2023-07-08T11:38:16;5.47;;;3.70;;
25917;SDS011;13899;51.174;4.456;2023-07-08T11:41:03;5.00;;;3.75;;
25917;SDS011;13899;51.174;4.456;2023-07-08T11:46:11;5.22;;;4.90;;
25917;SDS011;13899;51.174;4.456;2023-07-08T11:48:47;5.57;;;5.07;;
25917;SDS011;13899;51.174;4.456;2023-07-08T11:51:19;4.65;;;4.25;;
25917;SDS011;13899;51.174;4.456;2023-07-08T11:53:49;4.97;;;4.32;;
25917;SDS011;13899;51.174;4.456;2023-07-08T11:58:58;6.70;;;4.38;;
25917;SDS011;13899;51.174;4.456;2023-07-08T12:04:16;5.30;;;4.57;;
25917;SDS011;13899;51.174;4.456;2023-07-08T12:06:54;5.28;;;4.20;;
25917;SDS011;13899;51.174;4.456;2023-07-08T12:09:28;6.93;;;4.80;;
25917;SDS011;13899;51.174;4.456;2023-07-08T12:12:01;5.82;;;4.63;;
25917;SDS011;13899;51.174;4.456;2023-07-08T12:14:39;4.68;;;4.18;;
25917;SDS011;13899;51.174;4.456;2023-07-08T12:17:09;5.63;;;5.05;;
25917;SDS011;13899;51.174;4.456;2023-07-08T12:19:37;5.13;;;4.47;;
25917;SDS011;13899;51.174;4.456;2023-07-08T12:22:07;5.15;;;4.68;;
25917;SDS011;13899;51.174;4.456;2023-07-08T12:24:34;5.35;;;4.38;;
25917;SDS011;13899;51.174;4.456;2023-07-08T12:27:00;5.38;;;4.40;;
25917;SDS011;13899;51.174;4.456;2023-07-08T12:29:25;4.95;;;4.47;;
25917;SDS011;13899;51.174;4.456;2023-07-08T12:31:51;8.80;;;5.15;;
25917;SDS011;13899;51.174;4.456;2023-07-08T12:34:17;5.00;;;4.47;;
25917;SDS011;13899;51.174;4.456;2023-07-08T12:36:43;5.18;;;4.40;;
25917;SDS011;13899;51.174;4.456;2023-07-08T12:39:11;7.03;;;4.60;;
25917;SDS011;13899;51.174;4.456;2023-07-08T12:41:40;4.72;;;3.88;;
25917;SDS011;13899;51.174;4.456;2023-07-08T12:44:08;5.85;;;4.38;;
25917;SDS011;13899;51.174;4.456;2023-07-08T12:46:44;5.95;;;4.25;;
25917;SDS011;13899;51.174;4.456;2023-07-08T12:49:11;5.22;;;4.28;;
25917;SDS011;13899;51.174;4.456;2023-07-08T12:51:41;5.45;;;4.70;;
25917;SDS011;13899;51.174;4.456;2023-07-08T12:54:10;6.10;;;5.50;;
25917;SDS011;13899;51.174;4.456;2023-07-08T12:56:37;6.60;;;5.93;;
25917;SDS011;13899;51.174;4.456;2023-07-08T12:59:03;16.88;;;5.90;;
25917;SDS011;13899;51.174;4.456;2023-07-08T13:01:31;5.60;;;4.93;;
25917;SDS011;13899;51.174;4.456;2023-07-08T13:04:00;5.13;;;4.47;;
25917;SDS011;13899;51.174;4.456;2023-07-08T13:06:29;5.15;;;4.65;;
25917;SDS011;13899;51.174;4.456;2023-07-08T13:08:57;4.57;;;4.18;;
25917;SDS011;13899;51.174;4.456;2023-07-08T13:11:31;4.78;;;4.22;;
25917;SDS011;13899;51.174;4.456;2023-07-08T13:16:29;4.03;;;3.72;;
25917;SDS011;13899;51.174;4.456;2023-07-08T13:18:57;5.03;;;4.45;;
25917;SDS011;13899;51.174;4.456;2023-07-08T13:21:23;5.50;;;4.60;;
25917;SDS011;13899;51.174;4.456;2023-07-08T13:23:49;5.72;;;3.67;;
25917;SDS011;13899;51.174;4.456;2023-07-08T13:26:16;5.72;;;3.97;;
25917;SDS011;13899;51.174;4.456;2023-07-08T13:28:44;4.70;;;4.10;;
25917;SDS011;13899;51.174;4.456;2023-07-08T13:31:20;3.90;;;3.60;;
25917;SDS011;13899;51.174;4.456;2023-07-08T13:33:49;4.53;;;4.13;;
25917;SDS011;13899;51.174;4.456;2023-07-08T13:36:22;5.50;;;4.97;;
25917;SDS011;13899;51.174;4.456;2023-07-08T13:38:49;6.53;;;4.35;;
25917;SDS011;13899;51.174;4.456;2023-07-08T13:41:18;4.90;;;4.32;;
25917;SDS011;13899;51.174;4.456;2023-07-08T13:43:46;5.53;;;4.78;;
25917;SDS011;13899;51.174;4.456;2023-07-08T13:49:15;6.80;;;3.55;;
25917;SDS011;13899;51.174;4.456;2023-07-08T13:52:08;4.95;;;2.78;;
25917;SDS011;13899;51.174;4.456;2023-07-08T13:54:58;4.47;;;3.15;;
25917;SDS011;13899;51.174;4.456;2023-07-08T13:57:29;7.73;;;3.77;;
25917;SDS011;13899;51.174;4.456;2023-07-08T13:59:59;7.28;;;3.53;;
25917;SDS011;13899;51.174;4.456;2023-07-08T14:02:26;7.10;;;3.33;;
25917;SDS011;13899;51.174;4.456;2023-07-08T14:04:55;7.28;;;3.28;;
25917;SDS011;13899;51.174;4.456;2023-07-08T14:07:26;5.95;;;3.78;;
25917;SDS011;13899;51.174;4.456;2023-07-08T14:09:55;6.00;;;3.20;;
25917;SDS011;13899;51.174;4.456;2023-07-08T14:12:21;5.88;;;3.00;;
25917;SDS011;13899;51.174;4.456;2023-07-08T14:14:48;5.75;;;3.17;;
25917;SDS011;13899;51.174;4.456;2023-07-08T14:17:15;5.20;;;3.07;;
25917;SDS011;13899;51.174;4.456;2023-07-08T14:19:45;5.85;;;2.90;;
25917;SDS011;13899;51.174;4.456;2023-07-08T14:24:51;4.80;;;3.38;;
25917;SDS011;13899;51.174;4.456;2023-07-08T14:27:17;6.70;;;3.67;;
25917;SDS011;13899;51.174;4.456;2023-07-08T14:29:43;5.50;;;3.13;;
25917;SDS011;13899;51.174;4.456;2023-07-08T14:32:27;4.60;;;3.58;;
25917;SDS011;13899;51.174;4.456;2023-07-08T14:35:00;5.10;;;2.90;;
25917;SDS011;13899;51.174;4.456;2023-07-08T14:37:37;6.03;;;2.95;;
25917;SDS011;13899;51.174;4.456;2023-07-08T14:40:11;6.17;;;4.00;;
25917;SDS011;13899;51.174;4.456;2023-07-08T14:42:42;10.32;;;3.72;;
25917;SDS011;13899;51.174;4.456;2023-07-08T14:45:08;5.27;;;3.20;;
25917;SDS011;13899;51.174;4.456;2023-07-08T14:47:34;5.43;;;3.25;;
25917;SDS011;13899;51.174;4.456;2023-07-08T14:50:00;5.70;;;2.47;;
25917;SDS011;13899;51.174;4.456;2023-07-08T14:52:35;3.72;;;2.42;;
25917;SDS011;13899;51.174;4.456;2023-07-08T14:55:01;4.10;;;2.10;;
25917;SDS011;13899;51.174;4.456;2023-07-08T14:57:27;4.30;;;2.57;;
25917;SDS011;13899;51.174;4.456;2023-07-08T14:59:59;3.60;;;2.88;;
25917;SDS011;13899;51.174;4.456;2023-07-08T15:02:25;5.63;;;2.85;;
25917;SDS011;13899;51.174;4.456;2023-07-08T15:04:51;5.03;;;3.13;;
25917;SDS011;13899;51.174;4.456;2023-07-08T15:07:18;3.08;;;2.78;;
25917;SDS011;13899;51.174;4.456;2023-07-08T15:09:44;3.97;;;3.00;;
25917;SDS011;13899;51.174;4.456;2023-07-08T15:12:10;4.13;;;2.72;;
25917;SDS011;13899;51.174;4.456;2023-07-08T15:14:37;5.88;;;2.80;;
25917;SDS011;13899;51.174;4.456;2023-07-08T15:17:08;3.90;;;2.78;;
25917;SDS011;13899;51.174;4.456;2023-07-08T15:19:44;3.92;;;2.95;;
25917;SDS011;13899;51.174;4.456;2023-07-08T15:22:09;4.40;;;3.10;;
25917;SDS011;13899;51.174;4.456;2023-07-08T15:24:35;4.47;;;3.10;;
25917;SDS011;13899;51.174;4.456;2023-07-08T15:27:02;5.30;;;2.33;;
25917;SDS011;13899;51.174;4.456;2023-07-08T15:29:29;5.50;;;2.95;;
25917;SDS011;13899;51.174;4.456;2023-07-08T15:31:55;5.70;;;4.40;;
25917;SDS011;13899;51.174;4.456;2023-07-08T15:34:21;5.38;;;2.97;;
25917;SDS011;13899;51.174;4.456;2023-07-08T15:41:38;5.45;;;4.00;;
25917;SDS011;13899;51.174;4.456;2023-07-08T15:44:04;5.22;;;3.22;;
25917;SDS011;13899;51.174;4.456;2023-07-08T15:46:40;5.00;;;3.85;;
25917;SDS011;13899;51.174;4.456;2023-07-08T15:49:19;4.77;;;3.00;;
25917;SDS011;13899;51.174;4.456;2023-07-08T15:51:47;3.92;;;3.53;;
25917;SDS011;13899;51.174;4.456;2023-07-08T15:54:13;5.13;;;3.50;;
25917;SDS011;13899;51.174;4.456;2023-07-08T15:56:39;5.10;;;3.23;;
25917;SDS011;13899;51.174;4.456;2023-07-08T15:59:08;4.50;;;3.70;;
25917;SDS011;13899;51.174;4.456;2023-07-08T16:01:54;4.03;;;3.63;;
25917;SDS011;13899;51.174;4.456;2023-07-08T16:04:28;3.92;;;3.53;;
25917;SDS011;13899;51.174;4.456;2023-07-08T16:06:57;4.95;;;3.00;;
25917;SDS011;13899;51.174;4.456;2023-07-08T16:09:23;3.40;;;3.10;;
25917;SDS011;13899;51.174;4.456;2023-07-08T16:11:48;5.67;;;3.63;;
25917;SDS011;13899;51.174;4.456;2023-07-08T16:14:15;6.20;;;3.70;;
25917;SDS011;13899;51.174;4.456;2023-07-08T16:16:43;4.97;;;3.88;;
25917;SDS011;13899;51.174;4.456;2023-07-08T16:19:12;4.55;;;3.38;;
25917;SDS011;13899;51.174;4.456;2023-07-08T16:21:39;6.47;;;3.50;;
25917;SDS011;13899;51.174;4.456;2023-07-08T16:28:57;7.32;;;3.53;;
25917;SDS011;13899;51.174;4.456;2023-07-08T16:31:24;5.53;;;3.58;;
25917;SDS011;13899;51.174;4.456;2023-07-08T16:33:54;4.05;;;3.47;;